sensor_id;sensor_type;location;lat;lon;timestamp;temperature;humidity
31113;DHT22;17763;48.730;9.136;2022-10-16T00:00:36;16.20;99.90
31113;DHT22;17763;48.730;9.136;2022-10-16T00:03:07;16.10;99.90
31113;DHT22;17763;48.730;9.136;2022-10-16T00:05:33;16.20;99.90
31113;DHT22;17763;48.730;9.136;2022-10-16T00:08:05;16.10;99.90
31113;DHT22;17763;48.730;9.136;2022-10-16T00:10:33;16.10;99.90
31113;DHT22;17763;48.730;9.136;2022-10-16T00:12:59;16.10;99.90
31113;DHT22;17763;48.730;9.136;2022-10-16T00:15:25;16.20;99.90
31113;DHT22;17763;48.730;9.136;2022-10-16T00:17:51;16.20;99.90
31113;DHT22;17763;48.730;9.136;2022-10-16T00:20:16;16.20;99.90
31113;DHT22;17763;48.730;9.136;2022-10-16T00:22:42;16.20;99.90
31113;DHT22;17763;48.730;9.136;2022-10-16T00:25:08;16.20;99.90
31113;DHT22;17763;48.730;9.136;2022-10-16T00:27:34;16.20;99.90
31113;DHT22;17763;48.730;9.136;2022-10-16T00:29:59;16.20;99.90
31113;DHT22;17763;48.730;9.136;2022-10-16T00:32:25;16.20;99.90
31113;DHT22;17763;48.730;9.136;2022-10-16T00:34:54;16.10;99.90
31113;DHT22;17763;48.730;9.136;2022-10-16T00:37:20;16.10;99.90
31113;DHT22;17763;48.730;9.136;2022-10-16T00:39:46;16.10;99.90
31113;DHT22;17763;48.730;9.136;2022-10-16T00:42:17;16.10;99.90
31113;DHT22;17763;48.730;9.136;2022-10-16T00:44:44;16.10;99.90
31113;DHT22;17763;48.730;9.136;2022-10-16T00:47:15;16.10;99.90
31113;DHT22;17763;48.730;9.136;2022-10-16T00:49:43;16.10;99.90
31113;DHT22;17763;48.730;9.136;2022-10-16T00:52:12;16.10;99.90
31113;DHT22;17763;48.730;9.136;2022-10-16T00:54:41;16.00;99.90
31113;DHT22;17763;48.730;9.136;2022-10-16T00:57:08;16.00;99.90
31113;DHT22;17763;48.730;9.136;2022-10-16T00:59:39;16.00;99.90
31113;DHT22;17763;48.730;9.136;2022-10-16T01:02:11;16.00;99.90
31113;DHT22;17763;48.730;9.136;2022-10-16T01:04:48;15.90;99.90
31113;DHT22;17763;48.730;9.136;2022-10-16T01:10:52;15.90;99.90
31113;DHT22;17763;48.730;9.136;2022-10-16T01:13:25;16.00;99.90
31113;DHT22;17763;48.730;9.136;2022-10-16T01:15:54;16.00;99.90
31113;DHT22;17763;48.730;9.136;2022-10-16T01:18:32;15.90;99.90
31113;DHT22;17763;48.730;9.136;2022-10-16T01:21:03;16.00;99.90
31113;DHT22;17763;48.730;9.136;2022-10-16T01:24:11;16.00;99.90
31113;DHT22;17763;48.730;9.136;2022-10-16T01:29:44;15.90;99.90
31113;DHT22;17763;48.730;9.136;2022-10-16T01:35:22;15.90;99.90
31113;DHT22;17763;48.730;9.136;2022-10-16T01:37:56;15.90;99.90
31113;DHT22;17763;48.730;9.136;2022-10-16T01:40:26;15.90;99.90
31113;DHT22;17763;48.730;9.136;2022-10-16T01:42:59;15.90;99.90
31113;DHT22;17763;48.730;9.136;2022-10-16T01:45:28;15.90;99.90
31113;DHT22;17763;48.730;9.136;2022-10-16T01:47:57;15.90;99.90
31113;DHT22;17763;48.730;9.136;2022-10-16T01:50:26;15.90;99.90
31113;DHT22;17763;48.730;9.136;2022-10-16T01:52:54;15.90;99.90
31113;DHT22;17763;48.730;9.136;2022-10-16T01:55:36;15.80;99.90
31113;DHT22;17763;48.730;9.136;2022-10-16T01:58:05;15.80;99.90
31113;DHT22;17763;48.730;9.136;2022-10-16T02:00:32;15.80;99.90
31113;DHT22;17763;48.730;9.136;2022-10-16T02:03:01;15.80;99.90
31113;DHT22;17763;48.730;9.136;2022-10-16T02:05:49;15.80;99.90
31113;DHT22;17763;48.730;9.136;2022-10-16T02:08:21;15.80;99.90
31113;DHT22;17763;48.730;9.136;2022-10-16T02:10:48;15.80;99.90
31113;DHT22;17763;48.730;9.136;2022-10-16T02:13:18;15.80;99.90
31113;DHT22;17763;48.730;9.136;2022-10-16T02:15:46;15.80;99.90
31113;DHT22;17763;48.730;9.136;2022-10-16T02:18:12;15.80;99.90
31113;DHT22;17763;48.730;9.136;2022-10-16T02:20:57;15.80;99.90
31113;DHT22;17763;48.730;9.136;2022-10-16T02:26:12;15.80;99.90
31113;DHT22;17763;48.730;9.136;2022-10-16T02:28:45;15.80;99.90
31113;DHT22;17763;48.730;9.136;2022-10-16T02:31:19;15.70;99.90
31113;DHT22;17763;48.730;9.136;2022-10-16T02:33:51;15.80;99.90
31113;DHT22;17763;48.730;9.136;2022-10-16T02:36:18;15.70;99.90
31113;DHT22;17763;48.730;9.136;2022-10-16T02:38:44;15.70;99.90
31113;DHT22;17763;48.730;9.136;2022-10-16T02:41:13;15.70;99.90
31113;DHT22;17763;48.730;9.136;2022-10-16T02:43:39;15.70;99.90
31113;DHT22;17763;48.730;9.136;2022-10-16T02:46:05;15.60;99.90
31113;DHT22;17763;48.730;9.136;2022-10-16T02:48:33;15.60;99.90
31113;DHT22;17763;48.730;9.136;2022-10-16T02:50:58;15.60;99.90
31113;DHT22;17763;48.730;9.136;2022-10-16T02:53:24;15.60;99.90
31113;DHT22;17763;48.730;9.136;2022-10-16T02:55:54;15.60;99.90
31113;DHT22;17763;48.730;9.136;2022-10-16T02:58:20;15.60;99.90
31113;DHT22;17763;48.730;9.136;2022-10-16T03:00:46;15.60;99.90
31113;DHT22;17763;48.730;9.136;2022-10-16T03:03:12;15.60;99.90
31113;DHT22;17763;48.730;9.136;2022-10-16T03:05:40;15.60;99.90
31113;DHT22;17763;48.730;9.136;2022-10-16T03:08:06;15.60;99.90
31113;DHT22;17763;48.730;9.136;2022-10-16T03:10:31;15.60;99.90
31113;DHT22;17763;48.730;9.136;2022-10-16T03:12:57;15.50;99.90
31113;DHT22;17763;48.730;9.136;2022-10-16T03:15:22;15.50;99.90
31113;DHT22;17763;48.730;9.136;2022-10-16T03:17:48;15.50;99.90
31113;DHT22;17763;48.730;9.136;2022-10-16T03:20:14;15.50;99.90
31113;DHT22;17763;48.730;9.136;2022-10-16T03:22:39;15.50;99.90
31113;DHT22;17763;48.730;9.136;2022-10-16T03:25:05;15.50;99.90
31113;DHT22;17763;48.730;9.136;2022-10-16T03:27:33;15.50;99.90
31113;DHT22;17763;48.730;9.136;2022-10-16T03:29:59;15.40;99.90
31113;DHT22;17763;48.730;9.136;2022-10-16T03:32:27;15.50;99.90
31113;DHT22;17763;48.730;9.136;2022-10-16T03:34:53;15.50;99.90
31113;DHT22;17763;48.730;9.136;2022-10-16T03:37:21;15.50;99.90
31113;DHT22;17763;48.730;9.136;2022-10-16T03:39:47;15.50;99.90
31113;DHT22;17763;48.730;9.136;2022-10-16T03:42:12;15.50;99.90
31113;DHT22;17763;48.730;9.136;2022-10-16T03:44:38;15.50;99.90
31113;DHT22;17763;48.730;9.136;2022-10-16T03:47:03;15.50;99.90
31113;DHT22;17763;48.730;9.136;2022-10-16T03:49:29;15.50;99.90
31113;DHT22;17763;48.730;9.136;2022-10-16T03:51:55;15.50;99.90
31113;DHT22;17763;48.730;9.136;2022-10-16T03:54:20;15.60;99.90
31113;DHT22;17763;48.730;9.136;2022-10-16T03:56:47;15.60;99.90
31113;DHT22;17763;48.730;9.136;2022-10-16T03:59:13;15.60;99.90
31113;DHT22;17763;48.730;9.136;2022-10-16T04:01:39;15.60;99.90
31113;DHT22;17763;48.730;9.136;2022-10-16T04:04:04;15.60;99.90
31113;DHT22;17763;48.730;9.136;2022-10-16T04:06:30;15.60;99.90
31113;DHT22;17763;48.730;9.136;2022-10-16T04:09:00;15.60;99.90
31113;DHT22;17763;48.730;9.136;2022-10-16T04:11:28;15.50;99.90
31113;DHT22;17763;48.730;9.136;2022-10-16T04:13:54;15.60;99.90
31113;DHT22;17763;48.730;9.136;2022-10-16T04:16:19;15.50;99.90
31113;DHT22;17763;48.730;9.136;2022-10-16T04:18:45;15.50;99.90
31113;DHT22;17763;48.730;9.136;2022-10-16T04:21:11;15.50;99.90
31113;DHT22;17763;48.730;9.136;2022-10-16T04:23:36;15.50;99.90
31113;DHT22;17763;48.730;9.136;2022-10-16T04:26:02;15.50;99.90
31113;DHT22;17763;48.730;9.136;2022-10-16T04:28:30;15.50;99.90
31113;DHT22;17763;48.730;9.136;2022-10-16T04:30:56;15.50;99.90
31113;DHT22;17763;48.730;9.136;2022-10-16T04:33:24;15.50;99.90
31113;DHT22;17763;48.730;9.136;2022-10-16T04:35:56;15.50;99.90
31113;DHT22;17763;48.730;9.136;2022-10-16T04:38:24;15.50;99.90
31113;DHT22;17763;48.730;9.136;2022-10-16T04:40:50;15.50;99.90
31113;DHT22;17763;48.730;9.136;2022-10-16T04:43:16;15.50;99.90
31113;DHT22;17763;48.730;9.136;2022-10-16T04:45:41;15.50;99.90
31113;DHT22;17763;48.730;9.136;2022-10-16T04:48:07;15.50;99.90
31113;DHT22;17763;48.730;9.136;2022-10-16T04:50:32;15.50;99.90
31113;DHT22;17763;48.730;9.136;2022-10-16T04:52:58;15.40;99.90
31113;DHT22;17763;48.730;9.136;2022-10-16T04:55:24;15.40;99.90
31113;DHT22;17763;48.730;9.136;2022-10-16T04:57:49;15.40;99.90
31113;DHT22;17763;48.730;9.136;2022-10-16T05:00:15;15.40;99.90
31113;DHT22;17763;48.730;9.136;2022-10-16T05:02:43;15.40;99.90
31113;DHT22;17763;48.730;9.136;2022-10-16T05:05:09;15.40;99.90
31113;DHT22;17763;48.730;9.136;2022-10-16T05:07:34;15.40;99.90
31113;DHT22;17763;48.730;9.136;2022-10-16T05:10:03;15.40;99.90
31113;DHT22;17763;48.730;9.136;2022-10-16T05:12:28;15.40;99.90
31113;DHT22;17763;48.730;9.136;2022-10-16T05:14:54;15.40;99.90
31113;DHT22;17763;48.730;9.136;2022-10-16T05:17:24;15.40;99.90
31113;DHT22;17763;48.730;9.136;2022-10-16T05:19:50;15.40;99.90
31113;DHT22;17763;48.730;9.136;2022-10-16T05:22:16;15.40;99.90
31113;DHT22;17763;48.730;9.136;2022-10-16T05:24:41;15.40;99.90
31113;DHT22;17763;48.730;9.136;2022-10-16T05:27:10;15.40;99.90
31113;DHT22;17763;48.730;9.136;2022-10-16T05:29:36;15.40;99.90
31113;DHT22;17763;48.730;9.136;2022-10-16T05:32:02;15.40;99.90
31113;DHT22;17763;48.730;9.136;2022-10-16T05:34:28;15.40;99.90
31113;DHT22;17763;48.730;9.136;2022-10-16T05:36:56;15.50;99.90
31113;DHT22;17763;48.730;9.136;2022-10-16T05:39:24;15.40;99.90
31113;DHT22;17763;48.730;9.136;2022-10-16T05:41:50;15.40;99.90
31113;DHT22;17763;48.730;9.136;2022-10-16T05:44:16;15.50;99.90
31113;DHT22;17763;48.730;9.136;2022-10-16T05:46:41;15.40;99.90
31113;DHT22;17763;48.730;9.136;2022-10-16T05:49:07;15.50;99.90
31113;DHT22;17763;48.730;9.136;2022-10-16T05:51:32;15.50;99.90
31113;DHT22;17763;48.730;9.136;2022-10-16T05:53:58;15.50;99.90
31113;DHT22;17763;48.730;9.136;2022-10-16T05:56:26;15.50;99.90
31113;DHT22;17763;48.730;9.136;2022-10-16T05:58:52;15.50;99.90
31113;DHT22;17763;48.730;9.136;2022-10-16T06:01:18;15.50;99.90
31113;DHT22;17763;48.730;9.136;2022-10-16T06:03:44;15.50;99.90
31113;DHT22;17763;48.730;9.136;2022-10-16T06:06:30;15.50;99.90
31113;DHT22;17763;48.730;9.136;2022-10-16T06:08:56;15.50;99.90
31113;DHT22;17763;48.730;9.136;2022-10-16T06:11:24;15.50;99.90
31113;DHT22;17763;48.730;9.136;2022-10-16T06:13:51;15.50;99.90
31113;DHT22;17763;48.730;9.136;2022-10-16T06:16:18;15.50;99.90
31113;DHT22;17763;48.730;9.136;2022-10-16T06:18:46;15.50;99.90
31113;DHT22;17763;48.730;9.136;2022-10-16T06:21:17;15.50;99.90
31113;DHT22;17763;48.730;9.136;2022-10-16T06:23:44;15.50;99.90
31113;DHT22;17763;48.730;9.136;2022-10-16T06:26:13;15.50;99.90
31113;DHT22;17763;48.730;9.136;2022-10-16T06:28:39;15.50;99.90
31113;DHT22;17763;48.730;9.136;2022-10-16T06:31:07;15.50;99.90
31113;DHT22;17763;48.730;9.136;2022-10-16T06:33:33;15.50;99.90
31113;DHT22;17763;48.730;9.136;2022-10-16T06:36:07;15.50;99.90
31113;DHT22;17763;48.730;9.136;2022-10-16T06:38:33;15.50;99.90
31113;DHT22;17763;48.730;9.136;2022-10-16T06:40:59;15.50;99.90
31113;DHT22;17763;48.730;9.136;2022-10-16T06:43:25;15.50;99.90
31113;DHT22;17763;48.730;9.136;2022-10-16T06:45:55;15.50;99.90
31113;DHT22;17763;48.730;9.136;2022-10-16T06:48:21;15.50;99.90
31113;DHT22;17763;48.730;9.136;2022-10-16T06:53:25;15.60;99.90
31113;DHT22;17763;48.730;9.136;2022-10-16T06:55:51;15.60;99.90
31113;DHT22;17763;48.730;9.136;2022-10-16T06:58:17;15.70;99.90
31113;DHT22;17763;48.730;9.136;2022-10-16T07:00:42;15.60;99.90
31113;DHT22;17763;48.730;9.136;2022-10-16T07:03:08;15.70;99.90
31113;DHT22;17763;48.730;9.136;2022-10-16T07:05:40;15.70;99.90
31113;DHT22;17763;48.730;9.136;2022-10-16T07:08:09;15.70;99.90
31113;DHT22;17763;48.730;9.136;2022-10-16T07:10:35;15.70;99.90
31113;DHT22;17763;48.730;9.136;2022-10-16T07:13:01;15.70;99.90
31113;DHT22;17763;48.730;9.136;2022-10-16T07:15:27;15.70;99.90
31113;DHT22;17763;48.730;9.136;2022-10-16T07:17:57;15.80;99.90
31113;DHT22;17763;48.730;9.136;2022-10-16T07:20:23;15.80;99.90
31113;DHT22;17763;48.730;9.136;2022-10-16T07:22:49;15.80;99.90
31113;DHT22;17763;48.730;9.136;2022-10-16T07:25:16;15.90;99.90
31113;DHT22;17763;48.730;9.136;2022-10-16T07:27:42;15.80;99.90
31113;DHT22;17763;48.730;9.136;2022-10-16T07:30:08;15.90;99.90
31113;DHT22;17763;48.730;9.136;2022-10-16T07:32:34;15.80;99.90
31113;DHT22;17763;48.730;9.136;2022-10-16T07:34:59;15.80;99.90
31113;DHT22;17763;48.730;9.136;2022-10-16T07:37:25;15.90;99.90
31113;DHT22;17763;48.730;9.136;2022-10-16T07:39:52;15.90;99.90
31113;DHT22;17763;48.730;9.136;2022-10-16T07:42:18;15.90;99.90
31113;DHT22;17763;48.730;9.136;2022-10-16T07:44:45;16.00;99.90
31113;DHT22;17763;48.730;9.136;2022-10-16T07:47:11;16.00;99.90
31113;DHT22;17763;48.730;9.136;2022-10-16T07:49:38;16.10;99.90
31113;DHT22;17763;48.730;9.136;2022-10-16T07:52:04;16.10;99.90
31113;DHT22;17763;48.730;9.136;2022-10-16T07:54:30;16.10;99.90
31113;DHT22;17763;48.730;9.136;2022-10-16T07:56:55;16.10;99.90
31113;DHT22;17763;48.730;9.136;2022-10-16T07:59:21;16.20;99.90
31113;DHT22;17763;48.730;9.136;2022-10-16T08:01:49;16.20;99.90
31113;DHT22;17763;48.730;9.136;2022-10-16T08:04:17;16.20;99.90
31113;DHT22;17763;48.730;9.136;2022-10-16T08:06:43;16.20;99.90
31113;DHT22;17763;48.730;9.136;2022-10-16T08:09:09;16.20;99.90
31113;DHT22;17763;48.730;9.136;2022-10-16T08:11:35;16.30;99.90
31113;DHT22;17763;48.730;9.136;2022-10-16T08:14:00;16.40;99.90
31113;DHT22;17763;48.730;9.136;2022-10-16T08:16:26;16.40;99.90
31113;DHT22;17763;48.730;9.136;2022-10-16T08:18:52;16.50;99.90
31113;DHT22;17763;48.730;9.136;2022-10-16T08:21:22;16.50;99.90
31113;DHT22;17763;48.730;9.136;2022-10-16T08:23:49;16.60;99.90
31113;DHT22;17763;48.730;9.136;2022-10-16T08:26:18;16.60;99.90
31113;DHT22;17763;48.730;9.136;2022-10-16T08:28:48;16.70;99.90
31113;DHT22;17763;48.730;9.136;2022-10-16T08:31:15;16.70;99.90
31113;DHT22;17763;48.730;9.136;2022-10-16T08:33:43;16.70;99.90
31113;DHT22;17763;48.730;9.136;2022-10-16T08:36:10;16.80;99.90
31113;DHT22;17763;48.730;9.136;2022-10-16T08:38:36;16.90;99.90
31113;DHT22;17763;48.730;9.136;2022-10-16T08:41:41;16.90;99.90
31113;DHT22;17763;48.730;9.136;2022-10-16T08:44:29;17.00;99.90
31113;DHT22;17763;48.730;9.136;2022-10-16T08:49:30;17.00;99.90
31113;DHT22;17763;48.730;9.136;2022-10-16T08:51:56;17.10;99.90
31113;DHT22;17763;48.730;9.136;2022-10-16T08:54:36;17.10;99.90
31113;DHT22;17763;48.730;9.136;2022-10-16T08:57:18;17.10;99.90
31113;DHT22;17763;48.730;9.136;2022-10-16T08:59:45;17.20;99.90
31113;DHT22;17763;48.730;9.136;2022-10-16T09:02:33;17.20;99.90
31113;DHT22;17763;48.730;9.136;2022-10-16T09:07:49;17.20;99.90
31113;DHT22;17763;48.730;9.136;2022-10-16T09:13:40;17.30;99.90
31113;DHT22;17763;48.730;9.136;2022-10-16T09:16:27;17.40;99.90
31113;DHT22;17763;48.730;9.136;2022-10-16T09:19:10;17.50;99.90
31113;DHT22;17763;48.730;9.136;2022-10-16T09:21:41;17.50;99.90
31113;DHT22;17763;48.730;9.136;2022-10-16T09:24:19;17.60;99.90
31113;DHT22;17763;48.730;9.136;2022-10-16T09:26:50;17.60;99.90
31113;DHT22;17763;48.730;9.136;2022-10-16T09:29:20;17.70;99.90
31113;DHT22;17763;48.730;9.136;2022-10-16T09:31:46;17.80;99.90
31113;DHT22;17763;48.730;9.136;2022-10-16T09:36:49;17.90;99.90
31113;DHT22;17763;48.730;9.136;2022-10-16T09:39:16;18.00;99.90
31113;DHT22;17763;48.730;9.136;2022-10-16T09:41:44;18.00;99.90
31113;DHT22;17763;48.730;9.136;2022-10-16T09:44:26;18.10;99.90
31113;DHT22;17763;48.730;9.136;2022-10-16T09:47:15;18.10;99.90
31113;DHT22;17763;48.730;9.136;2022-10-16T09:49:57;18.20;99.90
31113;DHT22;17763;48.730;9.136;2022-10-16T09:52:25;18.20;99.90
31113;DHT22;17763;48.730;9.136;2022-10-16T09:57:19;18.30;99.90
31113;DHT22;17763;48.730;9.136;2022-10-16T09:59:50;18.40;99.90
31113;DHT22;17763;48.730;9.136;2022-10-16T10:02:18;18.50;99.90
31113;DHT22;17763;48.730;9.136;2022-10-16T10:04:51;18.50;99.90
31113;DHT22;17763;48.730;9.136;2022-10-16T10:07:30;18.70;99.90
31113;DHT22;17763;48.730;9.136;2022-10-16T10:09:59;18.70;99.90
31113;DHT22;17763;48.730;9.136;2022-10-16T10:12:29;18.80;99.90
31113;DHT22;17763;48.730;9.136;2022-10-16T10:15:04;18.80;99.90
31113;DHT22;17763;48.730;9.136;2022-10-16T10:17:31;19.00;99.90
31113;DHT22;17763;48.730;9.136;2022-10-16T10:22:42;19.10;99.90
31113;DHT22;17763;48.730;9.136;2022-10-16T10:30:29;19.20;99.90
31113;DHT22;17763;48.730;9.136;2022-10-16T10:52:52;19.80;99.90
31113;DHT22;17763;48.730;9.136;2022-10-16T10:58:54;19.90;99.90
31113;DHT22;17763;48.730;9.136;2022-10-16T11:01:45;20.00;99.90
31113;DHT22;17763;48.730;9.136;2022-10-16T11:07:04;20.10;99.90
31113;DHT22;17763;48.730;9.136;2022-10-16T11:09:36;20.20;99.90
31113;DHT22;17763;48.730;9.136;2022-10-16T11:12:26;20.20;99.90
31113;DHT22;17763;48.730;9.136;2022-10-16T11:15:11;20.30;99.90
31113;DHT22;17763;48.730;9.136;2022-10-16T11:18:06;20.30;99.90
31113;DHT22;17763;48.730;9.136;2022-10-16T11:20:47;20.40;99.90
31113;DHT22;17763;48.730;9.136;2022-10-16T11:23:30;20.50;99.90
31113;DHT22;17763;48.730;9.136;2022-10-16T11:26:02;20.40;99.90
31113;DHT22;17763;48.730;9.136;2022-10-16T11:28:35;20.40;99.40
31113;DHT22;17763;48.730;9.136;2022-10-16T11:33:30;20.40;99.90
31113;DHT22;17763;48.730;9.136;2022-10-16T11:36:25;20.40;99.90
31113;DHT22;17763;48.730;9.136;2022-10-16T11:39:21;20.50;99.90
31113;DHT22;17763;48.730;9.136;2022-10-16T11:44:48;20.40;99.60
31113;DHT22;17763;48.730;9.136;2022-10-16T11:47:35;20.50;99.80
31113;DHT22;17763;48.730;9.136;2022-10-16T11:50:17;20.50;99.90
31113;DHT22;17763;48.730;9.136;2022-10-16T12:01:26;20.70;99.70
31113;DHT22;17763;48.730;9.136;2022-10-16T12:04:11;20.70;99.60
31113;DHT22;17763;48.730;9.136;2022-10-16T12:09:28;20.80;97.60
31113;DHT22;17763;48.730;9.136;2022-10-16T12:11:55;20.90;97.20
31113;DHT22;17763;48.730;9.136;2022-10-16T12:14:22;21.00;97.20
31113;DHT22;17763;48.730;9.136;2022-10-16T12:17:02;21.00;96.60
31113;DHT22;17763;48.730;9.136;2022-10-16T12:19:31;21.10;96.00
31113;DHT22;17763;48.730;9.136;2022-10-16T12:22:02;21.10;95.70
31113;DHT22;17763;48.730;9.136;2022-10-16T12:25:05;21.20;95.90
31113;DHT22;17763;48.730;9.136;2022-10-16T12:27:30;21.30;95.70
31113;DHT22;17763;48.730;9.136;2022-10-16T12:30:04;21.40;95.50
31113;DHT22;17763;48.730;9.136;2022-10-16T12:32:39;21.50;95.50
31113;DHT22;17763;48.730;9.136;2022-10-16T12:35:17;21.50;95.20
31113;DHT22;17763;48.730;9.136;2022-10-16T12:37:47;21.50;95.20
31113;DHT22;17763;48.730;9.136;2022-10-16T12:40:15;21.60;95.00
31113;DHT22;17763;48.730;9.136;2022-10-16T12:42:42;21.60;94.80
31113;DHT22;17763;48.730;9.136;2022-10-16T12:45:27;21.60;93.80
31113;DHT22;17763;48.730;9.136;2022-10-16T12:47:54;21.60;93.60
31113;DHT22;17763;48.730;9.136;2022-10-16T12:50:27;21.60;93.60
31113;DHT22;17763;48.730;9.136;2022-10-16T12:52:53;21.60;93.80
31113;DHT22;17763;48.730;9.136;2022-10-16T12:55:20;21.60;93.90
31113;DHT22;17763;48.730;9.136;2022-10-16T13:01:42;21.60;93.80
31113;DHT22;17763;48.730;9.136;2022-10-16T13:05:19;21.60;93.40
31113;DHT22;17763;48.730;9.136;2022-10-16T13:07:29;21.60;93.60
31113;DHT22;17763;48.730;9.136;2022-10-16T13:10:35;21.50;94.00
31113;DHT22;17763;48.730;9.136;2022-10-16T13:21:00;21.50;97.00
31113;DHT22;17763;48.730;9.136;2022-10-16T13:29:31;21.50;96.70
31113;DHT22;17763;48.730;9.136;2022-10-16T13:31:58;21.50;96.30
31113;DHT22;17763;48.730;9.136;2022-10-16T13:34:28;21.50;96.40
31113;DHT22;17763;48.730;9.136;2022-10-16T13:36:54;21.50;95.70
31113;DHT22;17763;48.730;9.136;2022-10-16T13:39:28;21.50;95.20
31113;DHT22;17763;48.730;9.136;2022-10-16T13:42:06;21.50;95.30
31113;DHT22;17763;48.730;9.136;2022-10-16T13:44:43;21.50;94.80
31113;DHT22;17763;48.730;9.136;2022-10-16T13:47:24;21.50;94.80
31113;DHT22;17763;48.730;9.136;2022-10-16T13:50:14;21.50;94.50
31113;DHT22;17763;48.730;9.136;2022-10-16T13:52:43;21.50;94.30
31113;DHT22;17763;48.730;9.136;2022-10-16T13:55:15;21.50;94.60
31113;DHT22;17763;48.730;9.136;2022-10-16T13:57:42;21.50;94.70
31113;DHT22;17763;48.730;9.136;2022-10-16T14:00:26;21.60;94.40
31113;DHT22;17763;48.730;9.136;2022-10-16T14:03:13;21.50;93.90
31113;DHT22;17763;48.730;9.136;2022-10-16T14:05:48;21.50;94.20
31113;DHT22;17763;48.730;9.136;2022-10-16T14:08:14;21.50;94.50
31113;DHT22;17763;48.730;9.136;2022-10-16T14:10:41;21.50;94.00
31113;DHT22;17763;48.730;9.136;2022-10-16T14:13:07;21.50;94.40
31113;DHT22;17763;48.730;9.136;2022-10-16T14:15:36;21.40;95.00
31113;DHT22;17763;48.730;9.136;2022-10-16T14:18:02;21.40;95.10
31113;DHT22;17763;48.730;9.136;2022-10-16T14:20:32;21.40;95.30
31113;DHT22;17763;48.730;9.136;2022-10-16T14:25:31;21.40;95.20
31113;DHT22;17763;48.730;9.136;2022-10-16T14:30:27;21.40;95.80
31113;DHT22;17763;48.730;9.136;2022-10-16T14:33:04;21.40;96.10
31113;DHT22;17763;48.730;9.136;2022-10-16T14:35:32;21.40;95.90
31113;DHT22;17763;48.730;9.136;2022-10-16T14:38:00;21.30;96.10
31113;DHT22;17763;48.730;9.136;2022-10-16T14:40:34;21.30;96.40
31113;DHT22;17763;48.730;9.136;2022-10-16T14:43:03;21.30;95.90
31113;DHT22;17763;48.730;9.136;2022-10-16T14:45:34;21.30;96.00
31113;DHT22;17763;48.730;9.136;2022-10-16T14:48:06;21.30;95.10
31113;DHT22;17763;48.730;9.136;2022-10-16T14:50:40;21.30;95.30
31113;DHT22;17763;48.730;9.136;2022-10-16T14:53:12;21.40;95.50
31113;DHT22;17763;48.730;9.136;2022-10-16T14:55:39;21.40;96.00
31113;DHT22;17763;48.730;9.136;2022-10-16T14:58:13;21.30;96.30
31113;DHT22;17763;48.730;9.136;2022-10-16T15:00:40;21.40;96.20
31113;DHT22;17763;48.730;9.136;2022-10-16T15:03:05;21.40;96.10
31113;DHT22;17763;48.730;9.136;2022-10-16T15:05:36;21.40;95.90
31113;DHT22;17763;48.730;9.136;2022-10-16T15:08:05;21.50;95.90
31113;DHT22;17763;48.730;9.136;2022-10-16T15:10:31;21.50;96.40
31113;DHT22;17763;48.730;9.136;2022-10-16T15:12:58;21.50;96.00
31113;DHT22;17763;48.730;9.136;2022-10-16T15:15:36;21.50;95.90
31113;DHT22;17763;48.730;9.136;2022-10-16T15:18:03;21.50;95.70
31113;DHT22;17763;48.730;9.136;2022-10-16T15:20:34;21.50;95.70
31113;DHT22;17763;48.730;9.136;2022-10-16T15:23:10;21.60;95.90
31113;DHT22;17763;48.730;9.136;2022-10-16T15:28:11;21.70;96.20
31113;DHT22;17763;48.730;9.136;2022-10-16T15:30:38;21.80;96.20
31113;DHT22;17763;48.730;9.136;2022-10-16T15:33:08;21.80;95.90
31113;DHT22;17763;48.730;9.136;2022-10-16T15:35:37;21.90;95.70
31113;DHT22;17763;48.730;9.136;2022-10-16T15:38:09;21.80;95.60
31113;DHT22;17763;48.730;9.136;2022-10-16T15:40:35;21.80;95.70
31113;DHT22;17763;48.730;9.136;2022-10-16T15:43:02;21.80;95.80
31113;DHT22;17763;48.730;9.136;2022-10-16T15:45:28;21.70;96.00
31113;DHT22;17763;48.730;9.136;2022-10-16T15:47:53;21.70;96.20
31113;DHT22;17763;48.730;9.136;2022-10-16T15:50:21;21.60;96.40
31113;DHT22;17763;48.730;9.136;2022-10-16T15:52:52;21.60;96.70
31113;DHT22;17763;48.730;9.136;2022-10-16T15:55:18;21.60;96.90
31113;DHT22;17763;48.730;9.136;2022-10-16T15:57:45;21.60;97.10
31113;DHT22;17763;48.730;9.136;2022-10-16T16:00:15;21.60;97.30
31113;DHT22;17763;48.730;9.136;2022-10-16T16:02:53;21.60;97.50
31113;DHT22;17763;48.730;9.136;2022-10-16T16:05:22;21.50;97.60
31113;DHT22;17763;48.730;9.136;2022-10-16T16:07:48;21.50;97.70
31113;DHT22;17763;48.730;9.136;2022-10-16T16:10:15;21.40;97.90
31113;DHT22;17763;48.730;9.136;2022-10-16T16:12:46;21.40;98.10
31113;DHT22;17763;48.730;9.136;2022-10-16T16:15:16;21.40;98.40
31113;DHT22;17763;48.730;9.136;2022-10-16T16:17:46;21.30;98.70
31113;DHT22;17763;48.730;9.136;2022-10-16T16:20:14;21.30;99.00
31113;DHT22;17763;48.730;9.136;2022-10-16T16:22:40;21.20;99.10
31113;DHT22;17763;48.730;9.136;2022-10-16T16:25:09;21.20;99.30
31113;DHT22;17763;48.730;9.136;2022-10-16T16:27:35;21.20;99.60
31113;DHT22;17763;48.730;9.136;2022-10-16T16:30:05;21.10;99.70
31113;DHT22;17763;48.730;9.136;2022-10-16T16:32:33;21.10;99.90
31113;DHT22;17763;48.730;9.136;2022-10-16T16:34:59;21.00;99.90
31113;DHT22;17763;48.730;9.136;2022-10-16T16:37:27;21.00;99.90
31113;DHT22;17763;48.730;9.136;2022-10-16T16:39:53;20.90;99.90
31113;DHT22;17763;48.730;9.136;2022-10-16T16:42:21;20.90;99.90
31113;DHT22;17763;48.730;9.136;2022-10-16T16:44:51;20.90;99.90
31113;DHT22;17763;48.730;9.136;2022-10-16T16:47:17;20.80;99.90
31113;DHT22;17763;48.730;9.136;2022-10-16T16:49:46;20.70;99.90
31113;DHT22;17763;48.730;9.136;2022-10-16T16:52:14;20.70;99.90
31113;DHT22;17763;48.730;9.136;2022-10-16T16:54:40;20.60;99.90
31113;DHT22;17763;48.730;9.136;2022-10-16T16:57:09;20.50;99.90
31113;DHT22;17763;48.730;9.136;2022-10-16T16:59:38;20.50;99.90
31113;DHT22;17763;48.730;9.136;2022-10-16T17:02:08;20.40;99.90
31113;DHT22;17763;48.730;9.136;2022-10-16T17:04:33;20.40;99.90
31113;DHT22;17763;48.730;9.136;2022-10-16T17:07:02;20.40;99.90
31113;DHT22;17763;48.730;9.136;2022-10-16T17:09:32;20.40;99.90
31113;DHT22;17763;48.730;9.136;2022-10-16T17:12:00;20.30;99.90
31113;DHT22;17763;48.730;9.136;2022-10-16T17:14:26;20.30;99.90
31113;DHT22;17763;48.730;9.136;2022-10-16T17:16:52;20.30;99.90
31113;DHT22;17763;48.730;9.136;2022-10-16T17:19:19;20.20;99.90
31113;DHT22;17763;48.730;9.136;2022-10-16T17:21:47;20.10;99.90
31113;DHT22;17763;48.730;9.136;2022-10-16T17:24:13;20.10;99.90
31113;DHT22;17763;48.730;9.136;2022-10-16T17:26:41;20.00;99.90
31113;DHT22;17763;48.730;9.136;2022-10-16T17:29:13;20.00;99.90
31113;DHT22;17763;48.730;9.136;2022-10-16T17:31:42;19.90;99.90